الصفحة الرئيسية
METAR-TAF:

METAR-TAF

مطار :

بروناي, بروناي

دائرة عرض: 04-56N, خط طول: 114-56E, ارتفاع: 22 متر

مراقبة الطقس الحالي

تاريخ ووقت الإصدار 25 دقيقة قبل الساعة 00:00UTC
ريح 4 عقدة من الشرق/الجنوب الشرقي
درجة الحرارة 28°درجة مئوية
الرطوبة 89%
ضغط 1010 hPa
الرؤية 10 كم أو أكثر
غيوم قليلة على ارتفاع 400 قدم
غيوم متفرقة على ارتفاع 14000 قدم
غيوم مفككة على ارتفاع 28000 قدم

METAR: WBSB 290000Z 12004KT 9999 FEW004 SCT140 BKN280 28/26 Q1010 NOSIG

زمن: 08:25 (00:25 UTC)

توقعات

تاريخ ووقت الإصدار 1ساعة و 35 دقيقة قبل الساعة 22:50UTC
التوقعات صالحة من29 الساعة 00 UTC إلى 30 الساعة 06 UTC
ريح 3 عقدة من الشرق/الجنوب الشرقي
الرؤية 10 كم أو أكثر
غيوم قليلة على ارتفاع 1500 قدم
غيوم قليلة على ارتفاع 1600 قدم, مزنة ركامية.
أصبح
من 29 الساعة 04 UTC إلى 29 الساعة 06 UTC
ريح 8 عقدة من الشمال الشرقي
غيوم متفرقة على ارتفاع 1600 قدم
غيوم قليلة على ارتفاع 1700 قدم, مزنة ركامية.
مؤقت
من 29 الساعة 08 UTC إلى 29 الساعة 10 UTC
الرؤية: 7000 متر
عاصفة رعدية, مطر خفيف

TAF: WBSB 282250Z 2900/3006 12003KT 9999 FEW015 FEW016CB BECMG 2904/2906 04008KT SCT016 FEW017CB TEMPO 2908/2910 7000 -TSRA

أرصاد الطقس والتوقعات من أكثر من 4000 مطار (تقارير الطقس للمطار METAR والتنبؤ بالطقس بالمطارTAF).

المحطات المتاحة هي النقط الصفراء والحمراء على الخريطة.

حرك المؤشر فوق النقطة لمعرفة اسم المحطة.

ثم انقر لمعرفة أرصاد وتوقعات الطقس.

لتغيير الخارطة: اضغط على الأزرار الخضراء مع رمز الصليب الأسود للتكبير. على الزر الأخضر مع شرطة للتصغير، أو على الأسهم الخضراء للخرائط المجاورة.


METAR-TAF: